sensor_id;sensor_type;location;lat;lon;timestamp;temperature;humidity
19039;DHT22;9652;49.014;12.052;2023-12-22T00:00:37;7.70;87.80
19039;DHT22;9652;49.014;12.052;2023-12-22T00:03:04;7.70;87.80
19039;DHT22;9652;49.014;12.052;2023-12-22T00:05:33;7.70;87.70
19039;DHT22;9652;49.014;12.052;2023-12-22T00:08:00;7.70;87.60
19039;DHT22;9652;49.014;12.052;2023-12-22T00:10:27;7.70;87.60
19039;DHT22;9652;49.014;12.052;2023-12-22T00:12:54;7.70;87.80
19039;DHT22;9652;49.014;12.052;2023-12-22T00:15:21;7.70;87.90
19039;DHT22;9652;49.014;12.052;2023-12-22T00:17:49;7.70;88.00
19039;DHT22;9652;49.014;12.052;2023-12-22T00:20:16;7.70;87.90
19039;DHT22;9652;49.014;12.052;2023-12-22T00:22:45;7.70;87.90
19039;DHT22;9652;49.014;12.052;2023-12-22T00:25:12;7.60;87.80
19039;DHT22;9652;49.014;12.052;2023-12-22T00:27:39;7.70;87.90
19039;DHT22;9652;49.014;12.052;2023-12-22T00:30:07;7.70;87.90
19039;DHT22;9652;49.014;12.052;2023-12-22T00:32:35;7.60;87.70
19039;DHT22;9652;49.014;12.052;2023-12-22T00:35:03;7.60;87.50
19039;DHT22;9652;49.014;12.052;2023-12-22T00:37:31;7.60;87.40
19039;DHT22;9652;49.014;12.052;2023-12-22T00:39:59;7.60;87.40
19039;DHT22;9652;49.014;12.052;2023-12-22T00:42:26;7.60;87.40
19039;DHT22;9652;49.014;12.052;2023-12-22T00:44:53;7.60;87.50
19039;DHT22;9652;49.014;12.052;2023-12-22T00:47:20;7.60;87.60
19039;DHT22;9652;49.014;12.052;2023-12-22T00:49:47;7.60;87.70
19039;DHT22;9652;49.014;12.052;2023-12-22T00:52:14;7.60;87.70
19039;DHT22;9652;49.014;12.052;2023-12-22T00:54:41;7.60;87.90
19039;DHT22;9652;49.014;12.052;2023-12-22T00:57:10;7.60;88.10
19039;DHT22;9652;49.014;12.052;2023-12-22T00:59:37;7.60;88.30
19039;DHT22;9652;49.014;12.052;2023-12-22T01:02:08;7.70;88.40
19039;DHT22;9652;49.014;12.052;2023-12-22T01:04:34;7.70;88.50
19039;DHT22;9652;49.014;12.052;2023-12-22T01:07:02;7.70;88.50
19039;DHT22;9652;49.014;12.052;2023-12-22T01:09:29;7.70;88.30
19039;DHT22;9652;49.014;12.052;2023-12-22T01:11:56;7.70;88.10
19039;DHT22;9652;49.014;12.052;2023-12-22T01:14:26;7.70;88.00
19039;DHT22;9652;49.014;12.052;2023-12-22T01:16:53;7.70;88.00
19039;DHT22;9652;49.014;12.052;2023-12-22T01:19:20;7.70;88.00
19039;DHT22;9652;49.014;12.052;2023-12-22T01:21:47;7.70;88.00
19039;DHT22;9652;49.014;12.052;2023-12-22T01:24:15;7.70;88.80
19039;DHT22;9652;49.014;12.052;2023-12-22T01:26:42;7.70;88.10
19039;DHT22;9652;49.014;12.052;2023-12-22T01:29:09;7.70;88.20
19039;DHT22;9652;49.014;12.052;2023-12-22T01:31:37;7.70;88.30
19039;DHT22;9652;49.014;12.052;2023-12-22T01:34:04;7.70;88.40
19039;DHT22;9652;49.014;12.052;2023-12-22T01:36:31;7.70;88.50
19039;DHT22;9652;49.014;12.052;2023-12-22T01:39:00;7.80;88.50
19039;DHT22;9652;49.014;12.052;2023-12-22T01:41:27;7.80;88.50
19039;DHT22;9652;49.014;12.052;2023-12-22T01:43:54;7.80;88.60
19039;DHT22;9652;49.014;12.052;2023-12-22T01:46:22;7.80;88.60
19039;DHT22;9652;49.014;12.052;2023-12-22T01:48:50;7.80;88.70
19039;DHT22;9652;49.014;12.052;2023-12-22T01:51:17;7.80;88.60
19039;DHT22;9652;49.014;12.052;2023-12-22T01:53:45;7.80;88.50
19039;DHT22;9652;49.014;12.052;2023-12-22T01:56:13;7.80;88.30
19039;DHT22;9652;49.014;12.052;2023-12-22T01:58:40;7.80;88.20
19039;DHT22;9652;49.014;12.052;2023-12-22T02:01:17;7.80;88.20
19039;DHT22;9652;49.014;12.052;2023-12-22T02:03:46;7.70;88.20
19039;DHT22;9652;49.014;12.052;2023-12-22T02:06:17;7.70;88.20
19039;DHT22;9652;49.014;12.052;2023-12-22T02:08:46;7.70;88.20
19039;DHT22;9652;49.014;12.052;2023-12-22T02:11:14;7.70;88.20
19039;DHT22;9652;49.014;12.052;2023-12-22T02:13:42;7.70;88.20
19039;DHT22;9652;49.014;12.052;2023-12-22T02:16:18;7.70;88.20
19039;DHT22;9652;49.014;12.052;2023-12-22T02:18:49;7.70;88.20
19039;DHT22;9652;49.014;12.052;2023-12-22T02:21:21;7.70;88.30
19039;DHT22;9652;49.014;12.052;2023-12-22T02:23:50;7.70;88.30
19039;DHT22;9652;49.014;12.052;2023-12-22T02:26:23;7.70;88.30
19039;DHT22;9652;49.014;12.052;2023-12-22T02:28:55;7.60;88.30
19039;DHT22;9652;49.014;12.052;2023-12-22T02:31:31;7.70;88.40
19039;DHT22;9652;49.014;12.052;2023-12-22T02:34:04;7.70;88.50
19039;DHT22;9652;49.014;12.052;2023-12-22T02:36:40;7.70;88.40
19039;DHT22;9652;49.014;12.052;2023-12-22T02:39:10;7.70;88.30
19039;DHT22;9652;49.014;12.052;2023-12-22T02:41:38;7.60;88.00
19039;DHT22;9652;49.014;12.052;2023-12-22T02:44:06;7.60;87.80
19039;DHT22;9652;49.014;12.052;2023-12-22T02:46:34;7.60;87.80
19039;DHT22;9652;49.014;12.052;2023-12-22T02:49:01;7.60;87.70
19039;DHT22;9652;49.014;12.052;2023-12-22T02:51:28;7.50;87.80
19039;DHT22;9652;49.014;12.052;2023-12-22T02:53:55;7.70;88.00
19039;DHT22;9652;49.014;12.052;2023-12-22T02:56:24;7.50;88.10
19039;DHT22;9652;49.014;12.052;2023-12-22T02:58:51;7.50;88.30
19039;DHT22;9652;49.014;12.052;2023-12-22T03:01:18;7.50;88.50
19039;DHT22;9652;49.014;12.052;2023-12-22T03:03:45;7.40;88.50
19039;DHT22;9652;49.014;12.052;2023-12-22T03:06:12;7.40;88.60
19039;DHT22;9652;49.014;12.052;2023-12-22T03:08:39;7.60;88.80
19039;DHT22;9652;49.014;12.052;2023-12-22T03:11:06;7.60;88.80
19039;DHT22;9652;49.014;12.052;2023-12-22T03:13:34;7.60;88.70
19039;DHT22;9652;49.014;12.052;2023-12-22T03:16:01;7.60;88.70
19039;DHT22;9652;49.014;12.052;2023-12-22T03:18:28;7.60;88.70
19039;DHT22;9652;49.014;12.052;2023-12-22T03:20:55;7.60;88.70
19039;DHT22;9652;49.014;12.052;2023-12-22T03:23:22;7.60;88.70
19039;DHT22;9652;49.014;12.052;2023-12-22T03:25:49;7.60;88.70
19039;DHT22;9652;49.014;12.052;2023-12-22T03:28:16;7.60;88.60
19039;DHT22;9652;49.014;12.052;2023-12-22T03:30:45;7.60;88.50
19039;DHT22;9652;49.014;12.052;2023-12-22T03:33:12;7.60;88.50
19039;DHT22;9652;49.014;12.052;2023-12-22T03:35:40;7.60;88.50
19039;DHT22;9652;49.014;12.052;2023-12-22T03:38:07;7.60;88.50
19039;DHT22;9652;49.014;12.052;2023-12-22T03:40:34;7.60;88.50
19039;DHT22;9652;49.014;12.052;2023-12-22T03:43:01;7.60;88.50
19039;DHT22;9652;49.014;12.052;2023-12-22T03:45:28;7.60;88.50
19039;DHT22;9652;49.014;12.052;2023-12-22T03:47:56;7.60;88.50
19039;DHT22;9652;49.014;12.052;2023-12-22T03:50:23;7.60;88.40
19039;DHT22;9652;49.014;12.052;2023-12-22T03:52:50;7.60;88.30
19039;DHT22;9652;49.014;12.052;2023-12-22T03:55:17;7.60;88.30
19039;DHT22;9652;49.014;12.052;2023-12-22T03:57:44;7.60;88.20
19039;DHT22;9652;49.014;12.052;2023-12-22T04:00:12;7.50;88.00
19039;DHT22;9652;49.014;12.052;2023-12-22T04:02:40;7.50;87.90
19039;DHT22;9652;49.014;12.052;2023-12-22T04:05:11;7.50;87.90
19039;DHT22;9652;49.014;12.052;2023-12-22T04:07:38;7.50;87.90
19039;DHT22;9652;49.014;12.052;2023-12-22T04:10:06;7.50;88.00
19039;DHT22;9652;49.014;12.052;2023-12-22T04:12:33;7.40;88.10
19039;DHT22;9652;49.014;12.052;2023-12-22T04:15:01;7.40;88.20
19039;DHT22;9652;49.014;12.052;2023-12-22T04:17:28;7.60;88.20
19039;DHT22;9652;49.014;12.052;2023-12-22T04:19:55;7.40;88.00
19039;DHT22;9652;49.014;12.052;2023-12-22T04:22:24;7.40;88.00
19039;DHT22;9652;49.014;12.052;2023-12-22T04:24:51;7.40;88.00
19039;DHT22;9652;49.014;12.052;2023-12-22T04:27:18;7.40;88.00
19039;DHT22;9652;49.014;12.052;2023-12-22T04:29:45;7.40;88.00
19039;DHT22;9652;49.014;12.052;2023-12-22T04:32:12;7.30;87.80
19039;DHT22;9652;49.014;12.052;2023-12-22T04:34:39;7.30;87.70
19039;DHT22;9652;49.014;12.052;2023-12-22T04:37:06;7.30;87.70
19039;DHT22;9652;49.014;12.052;2023-12-22T04:39:35;7.30;87.70
19039;DHT22;9652;49.014;12.052;2023-12-22T04:42:02;7.30;87.80
19039;DHT22;9652;49.014;12.052;2023-12-22T04:44:29;7.20;87.70
19039;DHT22;9652;49.014;12.052;2023-12-22T04:46:56;7.20;87.80
19039;DHT22;9652;49.014;12.052;2023-12-22T04:49:23;7.20;87.80
19039;DHT22;9652;49.014;12.052;2023-12-22T04:51:50;7.20;87.90
19039;DHT22;9652;49.014;12.052;2023-12-22T04:54:17;7.20;87.90
19039;DHT22;9652;49.014;12.052;2023-12-22T04:56:46;7.20;88.00
19039;DHT22;9652;49.014;12.052;2023-12-22T04:59:13;7.20;88.10
19039;DHT22;9652;49.014;12.052;2023-12-22T05:01:40;7.20;88.10
19039;DHT22;9652;49.014;12.052;2023-12-22T05:04:08;7.20;87.90
19039;DHT22;9652;49.014;12.052;2023-12-22T05:06:36;7.20;87.90
19039;DHT22;9652;49.014;12.052;2023-12-22T05:09:03;7.10;87.80
19039;DHT22;9652;49.014;12.052;2023-12-22T05:11:30;7.10;88.60
19039;DHT22;9652;49.014;12.052;2023-12-22T05:13:58;7.10;87.90
19039;DHT22;9652;49.014;12.052;2023-12-22T05:16:25;7.10;87.90
19039;DHT22;9652;49.014;12.052;2023-12-22T05:18:55;7.10;87.90
19039;DHT22;9652;49.014;12.052;2023-12-22T05:21:22;7.00;87.80
19039;DHT22;9652;49.014;12.052;2023-12-22T05:23:49;7.00;87.90
19039;DHT22;9652;49.014;12.052;2023-12-22T05:26:17;7.10;87.80
19039;DHT22;9652;49.014;12.052;2023-12-22T05:28:44;7.00;87.70
19039;DHT22;9652;49.014;12.052;2023-12-22T05:31:13;7.00;87.70
19039;DHT22;9652;49.014;12.052;2023-12-22T05:33:40;7.00;87.70
19039;DHT22;9652;49.014;12.052;2023-12-22T05:36:07;7.00;87.80
19039;DHT22;9652;49.014;12.052;2023-12-22T05:38:37;7.00;87.90
19039;DHT22;9652;49.014;12.052;2023-12-22T05:41:05;7.00;88.00
19039;DHT22;9652;49.014;12.052;2023-12-22T05:43:32;7.00;88.00
19039;DHT22;9652;49.014;12.052;2023-12-22T05:45:59;6.90;87.90
19039;DHT22;9652;49.014;12.052;2023-12-22T05:48:28;6.90;87.90
19039;DHT22;9652;49.014;12.052;2023-12-22T05:50:56;6.90;88.00
19039;DHT22;9652;49.014;12.052;2023-12-22T05:53:23;6.90;88.00
19039;DHT22;9652;49.014;12.052;2023-12-22T05:55:50;6.90;88.00
19039;DHT22;9652;49.014;12.052;2023-12-22T05:58:17;6.90;87.90
19039;DHT22;9652;49.014;12.052;2023-12-22T06:00:45;6.90;87.90
19039;DHT22;9652;49.014;12.052;2023-12-22T06:03:13;6.90;88.10
19039;DHT22;9652;49.014;12.052;2023-12-22T06:05:42;6.90;88.10
19039;DHT22;9652;49.014;12.052;2023-12-22T06:08:09;6.90;88.10
19039;DHT22;9652;49.014;12.052;2023-12-22T06:10:36;6.90;88.20
19039;DHT22;9652;49.014;12.052;2023-12-22T06:13:03;7.10;88.40
19039;DHT22;9652;49.014;12.052;2023-12-22T06:15:31;6.90;88.20
19039;DHT22;9652;49.014;12.052;2023-12-22T06:17:58;6.90;88.20
19039;DHT22;9652;49.014;12.052;2023-12-22T06:20:25;7.00;88.30
19039;DHT22;9652;49.014;12.052;2023-12-22T06:22:53;6.90;88.20
19039;DHT22;9652;49.014;12.052;2023-12-22T06:25:20;6.90;88.20
19039;DHT22;9652;49.014;12.052;2023-12-22T06:27:47;7.00;88.30
19039;DHT22;9652;49.014;12.052;2023-12-22T06:30:15;7.00;88.30
19039;DHT22;9652;49.014;12.052;2023-12-22T06:32:42;7.00;88.20
19039;DHT22;9652;49.014;12.052;2023-12-22T06:35:09;7.00;88.30
19039;DHT22;9652;49.014;12.052;2023-12-22T06:37:37;7.00;88.30
19039;DHT22;9652;49.014;12.052;2023-12-22T06:40:06;7.10;88.40
19039;DHT22;9652;49.014;12.052;2023-12-22T06:42:34;7.00;88.50
19039;DHT22;9652;49.014;12.052;2023-12-22T06:45:01;7.00;88.50
19039;DHT22;9652;49.014;12.052;2023-12-22T06:47:28;7.00;88.50
19039;DHT22;9652;49.014;12.052;2023-12-22T06:49:55;7.00;88.40
19039;DHT22;9652;49.014;12.052;2023-12-22T06:52:22;7.10;88.60
19039;DHT22;9652;49.014;12.052;2023-12-22T06:54:49;7.00;88.50
19039;DHT22;9652;49.014;12.052;2023-12-22T06:57:17;7.10;88.60
19039;DHT22;9652;49.014;12.052;2023-12-22T06:59:44;7.10;88.70
19039;DHT22;9652;49.014;12.052;2023-12-22T07:02:13;7.10;88.60
19039;DHT22;9652;49.014;12.052;2023-12-22T07:04:40;7.10;88.40
19039;DHT22;9652;49.014;12.052;2023-12-22T07:07:07;7.10;88.40
19039;DHT22;9652;49.014;12.052;2023-12-22T07:09:35;7.10;88.20
19039;DHT22;9652;49.014;12.052;2023-12-22T07:12:03;7.10;88.10
19039;DHT22;9652;49.014;12.052;2023-12-22T07:14:32;7.10;88.10
19039;DHT22;9652;49.014;12.052;2023-12-22T07:17:00;7.10;88.20
19039;DHT22;9652;49.014;12.052;2023-12-22T07:19:27;7.10;88.30
19039;DHT22;9652;49.014;12.052;2023-12-22T07:21:54;7.10;88.20
19039;DHT22;9652;49.014;12.052;2023-12-22T07:24:21;7.10;88.30
19039;DHT22;9652;49.014;12.052;2023-12-22T07:26:48;7.10;88.20
19039;DHT22;9652;49.014;12.052;2023-12-22T07:29:16;7.00;88.00
19039;DHT22;9652;49.014;12.052;2023-12-22T07:31:44;7.00;87.90
19039;DHT22;9652;49.014;12.052;2023-12-22T07:34:11;7.00;87.70
19039;DHT22;9652;49.014;12.052;2023-12-22T07:36:38;7.00;87.90
19039;DHT22;9652;49.014;12.052;2023-12-22T07:39:05;6.90;87.90
19039;DHT22;9652;49.014;12.052;2023-12-22T07:41:32;6.90;88.10
19039;DHT22;9652;49.014;12.052;2023-12-22T07:43:59;6.90;88.20
19039;DHT22;9652;49.014;12.052;2023-12-22T07:46:27;6.90;88.30
19039;DHT22;9652;49.014;12.052;2023-12-22T07:48:56;6.90;88.30
19039;DHT22;9652;49.014;12.052;2023-12-22T07:51:23;6.90;88.40
19039;DHT22;9652;49.014;12.052;2023-12-22T07:53:50;6.90;88.50
19039;DHT22;9652;49.014;12.052;2023-12-22T07:56:17;6.90;88.60
19039;DHT22;9652;49.014;12.052;2023-12-22T07:58:44;7.00;88.70
19039;DHT22;9652;49.014;12.052;2023-12-22T08:01:12;7.00;88.90
19039;DHT22;9652;49.014;12.052;2023-12-22T08:03:40;7.00;89.00
19039;DHT22;9652;49.014;12.052;2023-12-22T08:06:09;7.10;89.10
19039;DHT22;9652;49.014;12.052;2023-12-22T08:08:36;7.10;89.30
19039;DHT22;9652;49.014;12.052;2023-12-22T08:11:03;7.10;89.60
19039;DHT22;9652;49.014;12.052;2023-12-22T08:13:30;7.20;89.70
19039;DHT22;9652;49.014;12.052;2023-12-22T08:15:57;7.20;89.80
19039;DHT22;9652;49.014;12.052;2023-12-22T08:18:24;7.30;89.90
19039;DHT22;9652;49.014;12.052;2023-12-22T08:20:51;7.30;89.90
19039;DHT22;9652;49.014;12.052;2023-12-22T08:23:19;7.40;89.90
19039;DHT22;9652;49.014;12.052;2023-12-22T08:25:46;7.40;89.90
19039;DHT22;9652;49.014;12.052;2023-12-22T08:28:13;7.50;89.80
19039;DHT22;9652;49.014;12.052;2023-12-22T08:30:41;7.50;89.70
19039;DHT22;9652;49.014;12.052;2023-12-22T08:33:09;7.60;89.60
19039;DHT22;9652;49.014;12.052;2023-12-22T08:35:36;7.60;89.60
19039;DHT22;9652;49.014;12.052;2023-12-22T08:38:03;7.60;89.60
19039;DHT22;9652;49.014;12.052;2023-12-22T08:40:32;7.70;89.70
19039;DHT22;9652;49.014;12.052;2023-12-22T08:43:01;7.70;89.70
19039;DHT22;9652;49.014;12.052;2023-12-22T08:45:28;7.70;89.70
19039;DHT22;9652;49.014;12.052;2023-12-22T08:47:55;7.70;89.70
19039;DHT22;9652;49.014;12.052;2023-12-22T08:50:23;7.70;89.70
19039;DHT22;9652;49.014;12.052;2023-12-22T08:52:50;7.80;89.90
19039;DHT22;9652;49.014;12.052;2023-12-22T08:55:17;7.80;89.70
19039;DHT22;9652;49.014;12.052;2023-12-22T08:57:45;7.80;89.70
19039;DHT22;9652;49.014;12.052;2023-12-22T09:00:13;7.80;89.70
19039;DHT22;9652;49.014;12.052;2023-12-22T09:02:41;7.90;89.90
19039;DHT22;9652;49.014;12.052;2023-12-22T09:05:08;7.90;90.00
19039;DHT22;9652;49.014;12.052;2023-12-22T09:07:35;8.00;90.00
19039;DHT22;9652;49.014;12.052;2023-12-22T09:10:02;8.00;90.00
19039;DHT22;9652;49.014;12.052;2023-12-22T09:12:30;8.00;90.10
19039;DHT22;9652;49.014;12.052;2023-12-22T09:14:58;8.10;90.00
19039;DHT22;9652;49.014;12.052;2023-12-22T09:17:26;8.10;90.00
19039;DHT22;9652;49.014;12.052;2023-12-22T09:19:54;8.10;90.00
19039;DHT22;9652;49.014;12.052;2023-12-22T09:22:21;8.20;90.00
19039;DHT22;9652;49.014;12.052;2023-12-22T09:24:48;8.20;90.10
19039;DHT22;9652;49.014;12.052;2023-12-22T09:27:15;8.20;90.00
19039;DHT22;9652;49.014;12.052;2023-12-22T09:29:42;8.30;90.00
19039;DHT22;9652;49.014;12.052;2023-12-22T09:32:11;8.30;89.90
19039;DHT22;9652;49.014;12.052;2023-12-22T09:34:38;8.40;89.80
19039;DHT22;9652;49.014;12.052;2023-12-22T09:37:06;8.30;89.70
19039;DHT22;9652;49.014;12.052;2023-12-22T09:39:33;8.30;89.60
19039;DHT22;9652;49.014;12.052;2023-12-22T09:42:00;8.30;89.60
19039;DHT22;9652;49.014;12.052;2023-12-22T09:44:32;8.30;89.90
19039;DHT22;9652;49.014;12.052;2023-12-22T09:46:59;8.30;90.00
19039;DHT22;9652;49.014;12.052;2023-12-22T09:49:32;8.30;90.00
19039;DHT22;9652;49.014;12.052;2023-12-22T09:52:01;8.30;90.10
19039;DHT22;9652;49.014;12.052;2023-12-22T09:54:30;8.40;90.20
19039;DHT22;9652;49.014;12.052;2023-12-22T09:56:58;8.40;90.40
19039;DHT22;9652;49.014;12.052;2023-12-22T09:59:27;8.50;90.30
19039;DHT22;9652;49.014;12.052;2023-12-22T10:01:55;8.50;90.20
19039;DHT22;9652;49.014;12.052;2023-12-22T10:04:24;8.60;90.20
19039;DHT22;9652;49.014;12.052;2023-12-22T10:06:53;8.70;90.10
19039;DHT22;9652;49.014;12.052;2023-12-22T10:09:27;8.60;90.00
19039;DHT22;9652;49.014;12.052;2023-12-22T10:11:55;8.60;89.80
19039;DHT22;9652;49.014;12.052;2023-12-22T10:14:23;8.60;89.70
19039;DHT22;9652;49.014;12.052;2023-12-22T10:16:52;8.60;89.60
19039;DHT22;9652;49.014;12.052;2023-12-22T10:19:19;8.60;89.60
19039;DHT22;9652;49.014;12.052;2023-12-22T10:21:48;8.60;89.70
19039;DHT22;9652;49.014;12.052;2023-12-22T10:24:39;8.60;89.70
19039;DHT22;9652;49.014;12.052;2023-12-22T10:27:08;8.60;89.80
19039;DHT22;9652;49.014;12.052;2023-12-22T10:29:36;8.60;89.80
19039;DHT22;9652;49.014;12.052;2023-12-22T10:32:04;8.70;89.80
19039;DHT22;9652;49.014;12.052;2023-12-22T10:34:32;8.70;89.60
19039;DHT22;9652;49.014;12.052;2023-12-22T10:37:00;8.70;89.40
19039;DHT22;9652;49.014;12.052;2023-12-22T10:39:27;8.70;89.30
19039;DHT22;9652;49.014;12.052;2023-12-22T10:41:56;8.70;89.30
19039;DHT22;9652;49.014;12.052;2023-12-22T10:44:24;8.70;89.30
19039;DHT22;9652;49.014;12.052;2023-12-22T10:46:52;8.60;89.10
19039;DHT22;9652;49.014;12.052;2023-12-22T10:49:20;8.60;89.10
19039;DHT22;9652;49.014;12.052;2023-12-22T10:51:48;8.60;89.30
19039;DHT22;9652;49.014;12.052;2023-12-22T10:54:16;8.60;89.20
19039;DHT22;9652;49.014;12.052;2023-12-22T10:56:43;8.50;89.00
19039;DHT22;9652;49.014;12.052;2023-12-22T10:59:12;8.50;88.90
19039;DHT22;9652;49.014;12.052;2023-12-22T11:01:39;8.50;89.00
19039;DHT22;9652;49.014;12.052;2023-12-22T11:04:07;8.50;89.00
19039;DHT22;9652;49.014;12.052;2023-12-22T11:06:37;8.50;89.00
19039;DHT22;9652;49.014;12.052;2023-12-22T11:09:07;8.40;89.20
19039;DHT22;9652;49.014;12.052;2023-12-22T11:11:36;8.40;89.30
19039;DHT22;9652;49.014;12.052;2023-12-22T11:14:05;8.40;89.40
19039;DHT22;9652;49.014;12.052;2023-12-22T11:16:35;8.40;89.40
19039;DHT22;9652;49.014;12.052;2023-12-22T11:19:03;8.40;89.50
19039;DHT22;9652;49.014;12.052;2023-12-22T11:21:31;8.40;89.80
19039;DHT22;9652;49.014;12.052;2023-12-22T11:23:58;8.40;90.00
19039;DHT22;9652;49.014;12.052;2023-12-22T11:26:26;8.50;90.10
19039;DHT22;9652;49.014;12.052;2023-12-22T11:28:55;8.50;90.10
19039;DHT22;9652;49.014;12.052;2023-12-22T11:31:23;8.50;90.00
19039;DHT22;9652;49.014;12.052;2023-12-22T11:33:56;8.50;90.00
19039;DHT22;9652;49.014;12.052;2023-12-22T11:36:26;8.80;90.00
19039;DHT22;9652;49.014;12.052;2023-12-22T11:38:55;8.60;90.00
19039;DHT22;9652;49.014;12.052;2023-12-22T11:41:26;8.60;90.00
19039;DHT22;9652;49.014;12.052;2023-12-22T11:43:58;8.60;90.00
19039;DHT22;9652;49.014;12.052;2023-12-22T11:46:26;8.60;90.00
19039;DHT22;9652;49.014;12.052;2023-12-22T11:48:57;8.50;90.00
19039;DHT22;9652;49.014;12.052;2023-12-22T11:51:31;8.60;90.00
19039;DHT22;9652;49.014;12.052;2023-12-22T11:54:00;8.60;90.00
19039;DHT22;9652;49.014;12.052;2023-12-22T11:56:29;8.60;89.90
19039;DHT22;9652;49.014;12.052;2023-12-22T11:58:57;8.60;89.80
19039;DHT22;9652;49.014;12.052;2023-12-22T12:01:25;8.60;89.80
19039;DHT22;9652;49.014;12.052;2023-12-22T12:03:55;8.60;89.60
19039;DHT22;9652;49.014;12.052;2023-12-22T12:06:32;8.60;89.40
19039;DHT22;9652;49.014;12.052;2023-12-22T12:09:04;8.60;89.40
19039;DHT22;9652;49.014;12.052;2023-12-22T12:12:11;8.50;89.60
19039;DHT22;9652;49.014;12.052;2023-12-22T12:14:41;8.50;89.80
19039;DHT22;9652;49.014;12.052;2023-12-22T12:17:09;8.50;89.80
19039;DHT22;9652;49.014;12.052;2023-12-22T12:19:39;8.50;90.00
19039;DHT22;9652;49.014;12.052;2023-12-22T12:22:07;8.50;90.00
19039;DHT22;9652;49.014;12.052;2023-12-22T12:24:36;8.60;90.20
19039;DHT22;9652;49.014;12.052;2023-12-22T12:27:05;8.60;90.30
19039;DHT22;9652;49.014;12.052;2023-12-22T12:29:33;8.70;90.40
19039;DHT22;9652;49.014;12.052;2023-12-22T12:32:04;8.70;90.40
19039;DHT22;9652;49.014;12.052;2023-12-22T12:34:32;8.70;90.30
19039;DHT22;9652;49.014;12.052;2023-12-22T12:37:01;8.70;90.40
19039;DHT22;9652;49.014;12.052;2023-12-22T12:39:30;8.70;90.30
19039;DHT22;9652;49.014;12.052;2023-12-22T12:42:01;8.80;90.40
19039;DHT22;9652;49.014;12.052;2023-12-22T12:44:29;8.80;90.30
19039;DHT22;9652;49.014;12.052;2023-12-22T12:46:58;8.80;90.30
19039;DHT22;9652;49.014;12.052;2023-12-22T12:49:25;8.90;90.30
19039;DHT22;9652;49.014;12.052;2023-12-22T12:51:55;8.90;90.30
19039;DHT22;9652;49.014;12.052;2023-12-22T12:54:23;9.30;90.40
19039;DHT22;9652;49.014;12.052;2023-12-22T12:56:50;8.90;90.30
19039;DHT22;9652;49.014;12.052;2023-12-22T12:59:18;8.90;90.30
19039;DHT22;9652;49.014;12.052;2023-12-22T13:01:46;9.00;90.30
19039;DHT22;9652;49.014;12.052;2023-12-22T13:04:14;9.00;90.30
19039;DHT22;9652;49.014;12.052;2023-12-22T13:06:45;9.00;90.30
19039;DHT22;9652;49.014;12.052;2023-12-22T13:09:12;9.00;90.30
19039;DHT22;9652;49.014;12.052;2023-12-22T13:11:42;9.00;90.30
19039;DHT22;9652;49.014;12.052;2023-12-22T13:14:11;9.00;90.30
19039;DHT22;9652;49.014;12.052;2023-12-22T13:16:39;9.10;90.30
19039;DHT22;9652;49.014;12.052;2023-12-22T13:19:07;9.10;90.30
19039;DHT22;9652;49.014;12.052;2023-12-22T13:21:34;9.10;90.40
19039;DHT22;9652;49.014;12.052;2023-12-22T13:24:08;9.20;90.50
19039;DHT22;9652;49.014;12.052;2023-12-22T13:26:36;9.20;90.50
19039;DHT22;9652;49.014;12.052;2023-12-22T13:29:05;9.20;90.50
19039;DHT22;9652;49.014;12.052;2023-12-22T13:31:32;9.30;90.50
19039;DHT22;9652;49.014;12.052;2023-12-22T13:34:00;9.30;90.50
19039;DHT22;9652;49.014;12.052;2023-12-22T13:36:27;9.30;90.50
19039;DHT22;9652;49.014;12.052;2023-12-22T13:38:59;9.30;90.40
19039;DHT22;9652;49.014;12.052;2023-12-22T13:41:27;9.40;90.50
19039;DHT22;9652;49.014;12.052;2023-12-22T13:43:54;9.40;90.50
19039;DHT22;9652;49.014;12.052;2023-12-22T13:46:28;9.40;90.50
19039;DHT22;9652;49.014;12.052;2023-12-22T13:48:55;9.40;90.50
19039;DHT22;9652;49.014;12.052;2023-12-22T13:51:23;9.50;90.50
19039;DHT22;9652;49.014;12.052;2023-12-22T13:53:50;9.50;90.40
19039;DHT22;9652;49.014;12.052;2023-12-22T13:56:17;9.50;90.80
19039;DHT22;9652;49.014;12.052;2023-12-22T13:58:45;9.50;90.40
19039;DHT22;9652;49.014;12.052;2023-12-22T14:01:13;9.50;90.40
19039;DHT22;9652;49.014;12.052;2023-12-22T14:03:43;9.50;90.40
19039;DHT22;9652;49.014;12.052;2023-12-22T14:06:11;9.60;90.40
19039;DHT22;9652;49.014;12.052;2023-12-22T14:08:39;9.60;90.40
19039;DHT22;9652;49.014;12.052;2023-12-22T14:11:07;9.60;90.40
19039;DHT22;9652;49.014;12.052;2023-12-22T14:13:34;9.60;90.40
19039;DHT22;9652;49.014;12.052;2023-12-22T14:16:05;9.60;90.40
19039;DHT22;9652;49.014;12.052;2023-12-22T14:18:32;9.70;90.40
19039;DHT22;9652;49.014;12.052;2023-12-22T14:21:01;9.70;90.40
19039;DHT22;9652;49.014;12.052;2023-12-22T14:23:29;9.70;90.40
19039;DHT22;9652;49.014;12.052;2023-12-22T14:25:56;9.70;90.40
19039;DHT22;9652;49.014;12.052;2023-12-22T14:28:23;9.90;90.40
19039;DHT22;9652;49.014;12.052;2023-12-22T14:30:51;9.70;90.30
19039;DHT22;9652;49.014;12.052;2023-12-22T14:33:18;9.80;90.40
19039;DHT22;9652;49.014;12.052;2023-12-22T14:35:45;9.80;90.40
19039;DHT22;9652;49.014;12.052;2023-12-22T14:38:13;9.80;90.40
19039;DHT22;9652;49.014;12.052;2023-12-22T14:40:40;9.80;90.40
19039;DHT22;9652;49.014;12.052;2023-12-22T14:43:07;9.80;90.30
19039;DHT22;9652;49.014;12.052;2023-12-22T14:45:34;9.80;90.30
19039;DHT22;9652;49.014;12.052;2023-12-22T14:48:01;9.80;90.30
19039;DHT22;9652;49.014;12.052;2023-12-22T14:50:28;9.80;90.30
19039;DHT22;9652;49.014;12.052;2023-12-22T14:52:55;9.80;90.30
19039;DHT22;9652;49.014;12.052;2023-12-22T14:55:23;9.80;90.30
19039;DHT22;9652;49.014;12.052;2023-12-22T14:57:50;9.80;90.30
19039;DHT22;9652;49.014;12.052;2023-12-22T15:00:17;9.80;90.30
19039;DHT22;9652;49.014;12.052;2023-12-22T15:02:45;9.80;90.20
19039;DHT22;9652;49.014;12.052;2023-12-22T15:05:12;9.80;90.30
19039;DHT22;9652;49.014;12.052;2023-12-22T15:07:39;9.80;90.30
19039;DHT22;9652;49.014;12.052;2023-12-22T15:10:07;9.80;90.20
19039;DHT22;9652;49.014;12.052;2023-12-22T15:12:36;9.80;90.20
19039;DHT22;9652;49.014;12.052;2023-12-22T15:15:06;9.80;90.20
19039;DHT22;9652;49.014;12.052;2023-12-22T15:17:33;9.80;90.20
19039;DHT22;9652;49.014;12.052;2023-12-22T15:20:00;9.80;90.30
19039;DHT22;9652;49.014;12.052;2023-12-22T15:22:29;9.80;90.30
19039;DHT22;9652;49.014;12.052;2023-12-22T15:24:56;9.80;90.40
19039;DHT22;9652;49.014;12.052;2023-12-22T15:27:23;9.90;90.40
19039;DHT22;9652;49.014;12.052;2023-12-22T15:29:51;9.90;90.50
19039;DHT22;9652;49.014;12.052;2023-12-22T15:32:19;9.90;90.50
19039;DHT22;9652;49.014;12.052;2023-12-22T15:34:46;10.10;90.50
19039;DHT22;9652;49.014;12.052;2023-12-22T15:37:13;10.00;90.50
19039;DHT22;9652;49.014;12.052;2023-12-22T15:39:40;10.00;90.90
19039;DHT22;9652;49.014;12.052;2023-12-22T15:42:07;10.00;90.50
19039;DHT22;9652;49.014;12.052;2023-12-22T15:44:39;10.00;90.50
19039;DHT22;9652;49.014;12.052;2023-12-22T15:47:08;10.00;90.50
19039;DHT22;9652;49.014;12.052;2023-12-22T15:49:37;10.10;90.50